sensor_id;sensor_type;location;lat;lon;timestamp;pressure;altitude;pressure_sealevel;temperature;humidity
70437;BME280;57877;39.750;-104.894;2023-05-07T00:01:36;83090.04;;;18.64;12.13
70437;BME280;57877;39.750;-104.894;2023-05-07T00:04:02;83091.57;;;19.35;11.81
70437;BME280;57877;39.750;-104.894;2023-05-07T00:06:28;83086.85;;;19.12;11.85
70437;BME280;57877;39.750;-104.894;2023-05-07T00:08:54;83078.78;;;18.65;12.06
70437;BME280;57877;39.750;-104.894;2023-05-07T00:11:20;83061.30;;;18.61;12.02
70437;BME280;57877;39.750;-104.894;2023-05-07T00:13:46;83053.04;;;19.50;11.75
70437;BME280;57877;39.750;-104.894;2023-05-07T00:16:12;83052.05;;;18.92;11.97
70437;BME280;57877;39.750;-104.894;2023-05-07T00:18:37;83041.54;;;19.56;11.45
70437;BME280;57877;39.750;-104.894;2023-05-07T00:21:02;83037.29;;;19.51;11.45
70437;BME280;57877;39.750;-104.894;2023-05-07T00:23:28;83054.59;;;20.21;10.80
70437;BME280;57877;39.750;-104.894;2023-05-07T00:25:54;83068.69;;;19.90;10.77
70437;BME280;57877;39.750;-104.894;2023-05-07T00:28:20;83077.11;;;20.16;10.73
70437;BME280;57877;39.750;-104.894;2023-05-07T00:30:46;83083.66;;;19.17;11.37
70437;BME280;57877;39.750;-104.894;2023-05-07T00:33:12;83089.84;;;20.26;10.95
70437;BME280;57877;39.750;-104.894;2023-05-07T00:35:36;83098.94;;;19.73;11.23
70437;BME280;57877;39.750;-104.894;2023-05-07T00:38:01;83110.52;;;20.51;10.95
70437;BME280;57877;39.750;-104.894;2023-05-07T00:40:26;83112.68;;;19.80;11.27
70437;BME280;57877;39.750;-104.894;2023-05-07T00:42:51;83114.00;;;19.71;11.34
70437;BME280;57877;39.750;-104.894;2023-05-07T00:45:17;83107.96;;;19.52;11.18
70437;BME280;57877;39.750;-104.894;2023-05-07T00:47:44;83109.07;;;19.88;10.93
70437;BME280;57877;39.750;-104.894;2023-05-07T00:50:10;83115.44;;;19.81;11.08
70437;BME280;57877;39.750;-104.894;2023-05-07T00:52:35;83113.10;;;19.44;11.34
70437;BME280;57877;39.750;-104.894;2023-05-07T00:55:05;83113.84;;;19.66;11.10
70437;BME280;57877;39.750;-104.894;2023-05-07T00:57:26;83115.20;;;19.37;11.22
70437;BME280;57877;39.750;-104.894;2023-05-07T00:59:52;83119.09;;;19.98;11.35
70437;BME280;57877;39.750;-104.894;2023-05-07T01:02:17;83113.34;;;19.28;11.35
70437;BME280;57877;39.750;-104.894;2023-05-07T01:04:41;83113.36;;;18.65;11.70
70437;BME280;57877;39.750;-104.894;2023-05-07T01:07:07;83118.35;;;18.07;12.12
70437;BME280;57877;39.750;-104.894;2023-05-07T01:09:32;83123.83;;;18.37;11.98
70437;BME280;57877;39.750;-104.894;2023-05-07T01:11:57;83124.33;;;18.68;12.02
70437;BME280;57877;39.750;-104.894;2023-05-07T01:14:22;83127.62;;;18.66;11.88
70437;BME280;57877;39.750;-104.894;2023-05-07T01:16:48;83130.58;;;18.29;11.79
70437;BME280;57877;39.750;-104.894;2023-05-07T01:19:15;83132.78;;;17.98;11.95
70437;BME280;57877;39.750;-104.894;2023-05-07T01:21:46;83138.51;;;17.53;12.56
70437;BME280;57877;39.750;-104.894;2023-05-07T01:24:06;83144.31;;;16.88;12.66
70437;BME280;57877;39.750;-104.894;2023-05-07T01:26:32;83145.45;;;18.05;12.17
70437;BME280;57877;39.750;-104.894;2023-05-07T01:28:58;83151.56;;;18.17;12.06
70437;BME280;57877;39.750;-104.894;2023-05-07T01:31:24;83150.72;;;17.71;12.17
70437;BME280;57877;39.750;-104.894;2023-05-07T01:33:51;83144.12;;;17.19;12.67
70437;BME280;57877;39.750;-104.894;2023-05-07T01:36:15;83149.47;;;17.26;12.77
70437;BME280;57877;39.750;-104.894;2023-05-07T01:38:42;83144.77;;;16.71;13.16
70437;BME280;57877;39.750;-104.894;2023-05-07T01:41:06;83143.17;;;16.65;12.99
70437;BME280;57877;39.750;-104.894;2023-05-07T01:43:32;83145.93;;;17.13;12.73
70437;BME280;57877;39.750;-104.894;2023-05-07T01:45:58;83161.05;;;17.01;12.88
70437;BME280;57877;39.750;-104.894;2023-05-07T01:48:22;83173.35;;;17.59;12.55
70437;BME280;57877;39.750;-104.894;2023-05-07T01:50:47;83171.12;;;18.21;12.32
70437;BME280;57877;39.750;-104.894;2023-05-07T01:53:12;83178.30;;;18.23;12.31
70437;BME280;57877;39.750;-104.894;2023-05-07T01:55:37;83180.68;;;17.02;12.89
70437;BME280;57877;39.750;-104.894;2023-05-07T01:58:02;83187.61;;;17.11;12.92
70437;BME280;57877;39.750;-104.894;2023-05-07T02:00:27;83194.32;;;16.59;13.04
70437;BME280;57877;39.750;-104.894;2023-05-07T02:02:52;83195.04;;;16.65;13.06
70437;BME280;57877;39.750;-104.894;2023-05-07T02:05:17;83192.42;;;17.48;12.48
70437;BME280;57877;39.750;-104.894;2023-05-07T02:07:42;83189.75;;;17.56;12.55
70437;BME280;57877;39.750;-104.894;2023-05-07T02:10:08;83191.47;;;17.99;12.22
70437;BME280;57877;39.750;-104.894;2023-05-07T02:12:32;83196.43;;;17.64;12.13
70437;BME280;57877;39.750;-104.894;2023-05-07T02:14:58;83202.29;;;17.62;12.16
70437;BME280;57877;39.750;-104.894;2023-05-07T02:17:24;83201.26;;;17.34;12.48
70437;BME280;57877;39.750;-104.894;2023-05-07T02:19:50;83201.29;;;17.29;12.59
70437;BME280;57877;39.750;-104.894;2023-05-07T02:22:16;83199.11;;;17.10;12.98
70437;BME280;57877;39.750;-104.894;2023-05-07T02:24:42;83201.09;;;17.34;12.97
70437;BME280;57877;39.750;-104.894;2023-05-07T02:27:08;83211.30;;;16.54;13.11
70437;BME280;57877;39.750;-104.894;2023-05-07T02:29:34;83220.57;;;17.54;12.59
70437;BME280;57877;39.750;-104.894;2023-05-07T02:31:59;83225.29;;;17.74;12.52
70437;BME280;57877;39.750;-104.894;2023-05-07T02:34:25;83232.21;;;17.43;12.72
70437;BME280;57877;39.750;-104.894;2023-05-07T02:36:51;83231.13;;;17.28;12.59
70437;BME280;57877;39.750;-104.894;2023-05-07T02:39:17;83238.33;;;17.86;12.32
70437;BME280;57877;39.750;-104.894;2023-05-07T02:41:41;83242.02;;;17.62;12.38
70437;BME280;57877;39.750;-104.894;2023-05-07T02:44:07;83243.31;;;17.03;12.97
70437;BME280;57877;39.750;-104.894;2023-05-07T02:46:33;83244.98;;;17.83;12.69
70437;BME280;57877;39.750;-104.894;2023-05-07T02:48:59;83242.70;;;17.43;12.83
70437;BME280;57877;39.750;-104.894;2023-05-07T02:51:25;83243.64;;;17.32;12.84
70437;BME280;57877;39.750;-104.894;2023-05-07T02:53:51;83245.27;;;17.64;12.60
70437;BME280;57877;39.750;-104.894;2023-05-07T02:56:16;83246.80;;;18.44;11.90
70437;BME280;57877;39.750;-104.894;2023-05-07T02:58:41;83250.30;;;18.92;11.91
70437;BME280;57877;39.750;-104.894;2023-05-07T03:01:08;83256.75;;;18.83;11.94
70437;BME280;57877;39.750;-104.894;2023-05-07T03:03:34;83262.80;;;18.42;12.22
70437;BME280;57877;39.750;-104.894;2023-05-07T03:05:59;83269.60;;;18.59;12.10
70437;BME280;57877;39.750;-104.894;2023-05-07T03:08:26;83274.57;;;18.71;12.09
70437;BME280;57877;39.750;-104.894;2023-05-07T03:10:51;83273.77;;;18.63;12.03
70437;BME280;57877;39.750;-104.894;2023-05-07T03:13:15;83274.26;;;18.56;11.96
70437;BME280;57877;39.750;-104.894;2023-05-07T03:15:41;83276.25;;;18.84;11.83
70437;BME280;57877;39.750;-104.894;2023-05-07T03:18:08;83276.09;;;18.94;11.93
70437;BME280;57877;39.750;-104.894;2023-05-07T03:20:34;83280.49;;;19.02;11.83
70437;BME280;57877;39.750;-104.894;2023-05-07T03:22:59;83288.30;;;19.33;11.76
70437;BME280;57877;39.750;-104.894;2023-05-07T03:25:25;83295.68;;;19.25;11.68
70437;BME280;57877;39.750;-104.894;2023-05-07T03:27:51;83298.12;;;19.24;11.59
70437;BME280;57877;39.750;-104.894;2023-05-07T03:30:18;83297.16;;;18.80;11.76
70437;BME280;57877;39.750;-104.894;2023-05-07T03:32:46;83300.52;;;18.98;11.75
70437;BME280;57877;39.750;-104.894;2023-05-07T03:35:09;83300.19;;;18.97;12.07
70437;BME280;57877;39.750;-104.894;2023-05-07T03:37:35;83301.85;;;19.03;12.03
70437;BME280;57877;39.750;-104.894;2023-05-07T03:40:01;83299.06;;;19.16;12.63
70437;BME280;57877;39.750;-104.894;2023-05-07T03:42:28;83301.58;;;19.01;12.53
70437;BME280;57877;39.750;-104.894;2023-05-07T03:44:53;83305.78;;;18.31;12.91
70437;BME280;57877;39.750;-104.894;2023-05-07T03:47:19;83305.74;;;18.46;12.91
70437;BME280;57877;39.750;-104.894;2023-05-07T03:49:45;83312.60;;;18.61;12.74
70437;BME280;57877;39.750;-104.894;2023-05-07T03:52:11;83325.55;;;18.21;12.79
70437;BME280;57877;39.750;-104.894;2023-05-07T03:54:37;83332.79;;;17.96;13.03
70437;BME280;57877;39.750;-104.894;2023-05-07T03:57:03;83340.42;;;18.00;13.34
70437;BME280;57877;39.750;-104.894;2023-05-07T03:59:29;83348.22;;;17.97;13.42
70437;BME280;57877;39.750;-104.894;2023-05-07T04:01:55;83348.81;;;17.89;13.87
70437;BME280;57877;39.750;-104.894;2023-05-07T04:04:21;83347.94;;;18.20;13.24
70437;BME280;57877;39.750;-104.894;2023-05-07T04:06:47;83347.74;;;18.65;12.84
70437;BME280;57877;39.750;-104.894;2023-05-07T04:09:13;83352.18;;;18.69;12.65
70437;BME280;57877;39.750;-104.894;2023-05-07T04:11:39;83359.59;;;18.57;12.45
70437;BME280;57877;39.750;-104.894;2023-05-07T04:14:05;83360.61;;;18.21;12.68
70437;BME280;57877;39.750;-104.894;2023-05-07T04:16:31;83360.32;;;18.03;13.02
70437;BME280;57877;39.750;-104.894;2023-05-07T04:18:57;83357.41;;;18.22;12.88
70437;BME280;57877;39.750;-104.894;2023-05-07T04:21:23;83355.83;;;18.39;12.72
70437;BME280;57877;39.750;-104.894;2023-05-07T04:23:49;83353.20;;;18.40;12.95
70437;BME280;57877;39.750;-104.894;2023-05-07T04:26:15;83358.73;;;18.24;14.06
70437;BME280;57877;39.750;-104.894;2023-05-07T04:28:40;83362.69;;;17.97;13.76
70437;BME280;57877;39.750;-104.894;2023-05-07T04:31:07;83364.01;;;17.94;13.42
70437;BME280;57877;39.750;-104.894;2023-05-07T04:33:33;83366.93;;;18.08;13.41
70437;BME280;57877;39.750;-104.894;2023-05-07T04:35:58;83366.64;;;18.50;13.89
70437;BME280;57877;39.750;-104.894;2023-05-07T04:38:24;83366.69;;;18.26;13.68
70437;BME280;57877;39.750;-104.894;2023-05-07T04:40:50;83365.85;;;18.13;13.72
70437;BME280;57877;39.750;-104.894;2023-05-07T04:43:16;83369.07;;;17.90;13.91
70437;BME280;57877;39.750;-104.894;2023-05-07T04:45:42;83366.70;;;17.62;14.09
70437;BME280;57877;39.750;-104.894;2023-05-07T04:48:09;83363.83;;;17.73;13.90
70437;BME280;57877;39.750;-104.894;2023-05-07T04:50:34;83361.64;;;18.19;14.10
70437;BME280;57877;39.750;-104.894;2023-05-07T04:53:00;83362.71;;;17.65;14.41
70437;BME280;57877;39.750;-104.894;2023-05-07T04:55:26;83365.97;;;17.50;15.13
70437;BME280;57877;39.750;-104.894;2023-05-07T04:57:53;83365.13;;;17.39;15.49
70437;BME280;57877;39.750;-104.894;2023-05-07T05:00:18;83361.53;;;17.29;15.63
70437;BME280;57877;39.750;-104.894;2023-05-07T05:02:44;83361.52;;;17.46;15.09
70437;BME280;57877;39.750;-104.894;2023-05-07T05:05:10;83362.50;;;17.50;14.73
70437;BME280;57877;39.750;-104.894;2023-05-07T05:07:36;83357.37;;;17.38;14.78
70437;BME280;57877;39.750;-104.894;2023-05-07T05:10:04;83355.58;;;17.37;14.51
70437;BME280;57877;39.750;-104.894;2023-05-07T05:12:29;83350.66;;;17.45;14.47
70437;BME280;57877;39.750;-104.894;2023-05-07T05:14:54;83353.32;;;17.26;14.67
70437;BME280;57877;39.750;-104.894;2023-05-07T05:17:20;83355.07;;;17.40;14.86
70437;BME280;57877;39.750;-104.894;2023-05-07T05:19:46;83360.54;;;17.00;14.58
70437;BME280;57877;39.750;-104.894;2023-05-07T05:22:12;83365.32;;;17.02;14.84
70437;BME280;57877;39.750;-104.894;2023-05-07T05:24:38;83366.79;;;17.04;14.33
70437;BME280;57877;39.750;-104.894;2023-05-07T05:27:04;83366.25;;;17.10;14.44
70437;BME280;57877;39.750;-104.894;2023-05-07T05:29:30;83369.82;;;16.81;14.72
70437;BME280;57877;39.750;-104.894;2023-05-07T05:31:56;83366.70;;;16.66;14.91
70437;BME280;57877;39.750;-104.894;2023-05-07T05:34:22;83367.86;;;16.76;14.77
70437;BME280;57877;39.750;-104.894;2023-05-07T05:36:48;83369.02;;;16.49;15.03
70437;BME280;57877;39.750;-104.894;2023-05-07T05:39:14;83371.73;;;16.63;15.17
70437;BME280;57877;39.750;-104.894;2023-05-07T05:41:40;83369.11;;;16.37;15.18
70437;BME280;57877;39.750;-104.894;2023-05-07T05:44:06;83367.69;;;16.46;15.20
70437;BME280;57877;39.750;-104.894;2023-05-07T05:46:32;83371.80;;;16.34;15.31
70437;BME280;57877;39.750;-104.894;2023-05-07T05:48:57;83372.70;;;16.20;15.46
70437;BME280;57877;39.750;-104.894;2023-05-07T05:51:23;83373.48;;;15.62;15.78
70437;BME280;57877;39.750;-104.894;2023-05-07T05:53:49;83368.25;;;16.00;15.60
70437;BME280;57877;39.750;-104.894;2023-05-07T05:56:16;83363.88;;;16.49;15.56
70437;BME280;57877;39.750;-104.894;2023-05-07T05:58:41;83362.28;;;16.50;15.47
70437;BME280;57877;39.750;-104.894;2023-05-07T06:01:07;83361.72;;;16.29;15.64
70437;BME280;57877;39.750;-104.894;2023-05-07T06:03:33;83363.28;;;16.34;15.92
70437;BME280;57877;39.750;-104.894;2023-05-07T06:05:59;83364.69;;;16.29;15.87
70437;BME280;57877;39.750;-104.894;2023-05-07T06:08:28;83357.79;;;16.30;16.05
70437;BME280;57877;39.750;-104.894;2023-05-07T06:10:53;83351.44;;;15.97;16.70
70437;BME280;57877;39.750;-104.894;2023-05-07T06:13:23;83348.90;;;15.51;17.55
70437;BME280;57877;39.750;-104.894;2023-05-07T06:15:43;83350.00;;;15.32;17.54
70437;BME280;57877;39.750;-104.894;2023-05-07T06:18:10;83348.55;;;15.65;17.27
70437;BME280;57877;39.750;-104.894;2023-05-07T06:20:36;83349.27;;;15.70;17.49
70437;BME280;57877;39.750;-104.894;2023-05-07T06:23:01;83348.13;;;15.63;17.39
70437;BME280;57877;39.750;-104.894;2023-05-07T06:25:27;83349.95;;;15.42;17.56
70437;BME280;57877;39.750;-104.894;2023-05-07T06:27:53;83351.04;;;14.93;17.86
70437;BME280;57877;39.750;-104.894;2023-05-07T06:30:19;83354.39;;;14.47;18.34
70437;BME280;57877;39.750;-104.894;2023-05-07T06:32:45;83356.70;;;14.81;18.14
70437;BME280;57877;39.750;-104.894;2023-05-07T06:35:11;83354.19;;;14.77;17.97
70437;BME280;57877;39.750;-104.894;2023-05-07T06:37:37;83356.28;;;14.83;18.00
70437;BME280;57877;39.750;-104.894;2023-05-07T06:40:04;83355.83;;;14.84;18.19
70437;BME280;57877;39.750;-104.894;2023-05-07T06:42:29;83357.04;;;14.62;18.40
70437;BME280;57877;39.750;-104.894;2023-05-07T06:44:55;83357.19;;;14.65;18.44
70437;BME280;57877;39.750;-104.894;2023-05-07T06:47:21;83351.16;;;14.81;18.12
70437;BME280;57877;39.750;-104.894;2023-05-07T06:49:47;83349.81;;;14.83;18.89
70437;BME280;57877;39.750;-104.894;2023-05-07T06:52:13;83353.36;;;13.92;19.92
70437;BME280;57877;39.750;-104.894;2023-05-07T06:54:41;83352.30;;;14.02;19.12
70437;BME280;57877;39.750;-104.894;2023-05-07T06:57:05;83350.21;;;14.08;19.83
70437;BME280;57877;39.750;-104.894;2023-05-07T06:59:34;83345.02;;;14.55;19.25
70437;BME280;57877;39.750;-104.894;2023-05-07T07:01:57;83351.97;;;14.51;19.24
70437;BME280;57877;39.750;-104.894;2023-05-07T07:04:24;83353.10;;;13.40;20.63
70437;BME280;57877;39.750;-104.894;2023-05-07T07:06:49;83352.45;;;13.38;20.01
70437;BME280;57877;39.750;-104.894;2023-05-07T07:09:15;83353.50;;;13.83;20.27
70437;BME280;57877;39.750;-104.894;2023-05-07T07:11:41;83352.07;;;14.01;19.80
70437;BME280;57877;39.750;-104.894;2023-05-07T07:14:07;83353.02;;;14.05;19.75
70437;BME280;57877;39.750;-104.894;2023-05-07T07:16:33;83360.90;;;13.65;19.94
70437;BME280;57877;39.750;-104.894;2023-05-07T07:18:59;83357.53;;;13.58;20.11
70437;BME280;57877;39.750;-104.894;2023-05-07T07:21:25;83355.66;;;14.05;19.62
70437;BME280;57877;39.750;-104.894;2023-05-07T07:23:50;83357.73;;;14.31;19.57
70437;BME280;57877;39.750;-104.894;2023-05-07T07:26:15;83354.62;;;14.14;19.53
70437;BME280;57877;39.750;-104.894;2023-05-07T07:28:46;83353.35;;;14.05;19.59
70437;BME280;57877;39.750;-104.894;2023-05-07T07:31:14;83355.15;;;14.22;19.40
70437;BME280;57877;39.750;-104.894;2023-05-07T07:33:36;83359.51;;;14.20;19.29
70437;BME280;57877;39.750;-104.894;2023-05-07T07:36:01;83360.98;;;14.43;19.43
70437;BME280;57877;39.750;-104.894;2023-05-07T07:38:28;83358.43;;;14.00;19.69
70437;BME280;57877;39.750;-104.894;2023-05-07T07:40:52;83357.29;;;13.35;20.28
70437;BME280;57877;39.750;-104.894;2023-05-07T07:43:17;83354.85;;;13.26;20.31
70437;BME280;57877;39.750;-104.894;2023-05-07T07:45:43;83354.72;;;13.60;20.15
70437;BME280;57877;39.750;-104.894;2023-05-07T07:48:12;83360.45;;;13.71;20.05
70437;BME280;57877;39.750;-104.894;2023-05-07T07:50:36;83363.30;;;13.64;20.49
70437;BME280;57877;39.750;-104.894;2023-05-07T07:53:06;83368.01;;;13.51;20.82
70437;BME280;57877;39.750;-104.894;2023-05-07T07:55:32;83362.32;;;13.47;20.87
70437;BME280;57877;39.750;-104.894;2023-05-07T07:57:54;83353.61;;;12.85;21.01
70437;BME280;57877;39.750;-104.894;2023-05-07T08:00:21;83354.04;;;13.54;20.50
70437;BME280;57877;39.750;-104.894;2023-05-07T08:02:47;83354.00;;;13.78;20.31
70437;BME280;57877;39.750;-104.894;2023-05-07T08:05:11;83351.88;;;13.27;20.68
70437;BME280;57877;39.750;-104.894;2023-05-07T08:07:38;83347.51;;;12.92;21.06
70437;BME280;57877;39.750;-104.894;2023-05-07T08:10:09;83342.59;;;13.19;20.70
70437;BME280;57877;39.750;-104.894;2023-05-07T08:12:29;83343.89;;;13.31;20.75
70437;BME280;57877;39.750;-104.894;2023-05-07T08:14:55;83341.21;;;13.40;20.61
70437;BME280;57877;39.750;-104.894;2023-05-07T08:17:21;83341.93;;;13.21;20.76
70437;BME280;57877;39.750;-104.894;2023-05-07T08:19:48;83341.00;;;13.03;20.75
70437;BME280;57877;39.750;-104.894;2023-05-07T08:22:13;83340.23;;;13.27;20.91
70437;BME280;57877;39.750;-104.894;2023-05-07T08:24:39;83344.54;;;13.33;21.14
70437;BME280;57877;39.750;-104.894;2023-05-07T08:27:10;83346.00;;;13.28;21.26
70437;BME280;57877;39.750;-104.894;2023-05-07T08:29:31;83348.80;;;13.23;21.46
70437;BME280;57877;39.750;-104.894;2023-05-07T08:31:57;83348.68;;;12.32;22.11
70437;BME280;57877;39.750;-104.894;2023-05-07T08:34:23;83347.80;;;12.62;22.36
70437;BME280;57877;39.750;-104.894;2023-05-07T08:36:49;83347.13;;;12.49;22.32
70437;BME280;57877;39.750;-104.894;2023-05-07T08:39:15;83354.26;;;12.16;22.90
70437;BME280;57877;39.750;-104.894;2023-05-07T08:41:42;83355.76;;;12.01;22.57
70437;BME280;57877;39.750;-104.894;2023-05-07T08:44:07;83361.49;;;11.90;22.91
70437;BME280;57877;39.750;-104.894;2023-05-07T08:46:33;83364.47;;;11.53;23.03
70437;BME280;57877;39.750;-104.894;2023-05-07T08:48:59;83361.03;;;11.99;22.76
70437;BME280;57877;39.750;-104.894;2023-05-07T08:51:25;83354.87;;;11.84;22.81
70437;BME280;57877;39.750;-104.894;2023-05-07T08:53:54;83347.55;;;11.78;22.76
70437;BME280;57877;39.750;-104.894;2023-05-07T08:56:18;83344.91;;;11.86;23.00
70437;BME280;57877;39.750;-104.894;2023-05-07T08:58:43;83346.20;;;11.95;22.90
70437;BME280;57877;39.750;-104.894;2023-05-07T09:01:10;83347.19;;;11.69;22.66
70437;BME280;57877;39.750;-104.894;2023-05-07T09:03:36;83350.54;;;12.21;22.48
70437;BME280;57877;39.750;-104.894;2023-05-07T09:06:00;83350.11;;;12.15;22.21
70437;BME280;57877;39.750;-104.894;2023-05-07T09:08:26;83352.14;;;12.11;21.95
70437;BME280;57877;39.750;-104.894;2023-05-07T09:10:52;83355.56;;;12.23;21.89
70437;BME280;57877;39.750;-104.894;2023-05-07T09:13:17;83358.59;;;12.42;21.48
70437;BME280;57877;39.750;-104.894;2023-05-07T09:15:43;83358.84;;;12.14;21.61
70437;BME280;57877;39.750;-104.894;2023-05-07T09:18:12;83358.53;;;12.29;21.69
70437;BME280;57877;39.750;-104.894;2023-05-07T09:20:36;83359.44;;;11.85;21.75
70437;BME280;57877;39.750;-104.894;2023-05-07T09:23:01;83362.01;;;11.90;21.45
70437;BME280;57877;39.750;-104.894;2023-05-07T09:25:32;83365.88;;;11.84;21.61
70437;BME280;57877;39.750;-104.894;2023-05-07T09:27:53;83368.14;;;11.63;21.71
70437;BME280;57877;39.750;-104.894;2023-05-07T09:30:18;83371.06;;;11.63;21.59
70437;BME280;57877;39.750;-104.894;2023-05-07T09:32:44;83372.76;;;11.41;21.56
70437;BME280;57877;39.750;-104.894;2023-05-07T09:35:16;83365.16;;;11.97;21.26
70437;BME280;57877;39.750;-104.894;2023-05-07T09:37:37;83368.16;;;11.76;21.10
70437;BME280;57877;39.750;-104.894;2023-05-07T09:40:03;83376.37;;;11.84;21.16
70437;BME280;57877;39.750;-104.894;2023-05-07T09:42:29;83373.46;;;11.73;21.13
70437;BME280;57877;39.750;-104.894;2023-05-07T09:44:55;83375.68;;;12.16;20.92
70437;BME280;57877;39.750;-104.894;2023-05-07T09:47:24;83380.59;;;11.96;20.86
70437;BME280;57877;39.750;-104.894;2023-05-07T09:49:48;83383.92;;;11.87;20.81
70437;BME280;57877;39.750;-104.894;2023-05-07T09:52:14;83386.41;;;11.50;21.21
70437;BME280;57877;39.750;-104.894;2023-05-07T09:54:43;83383.29;;;12.13;21.33
70437;BME280;57877;39.750;-104.894;2023-05-07T09:57:04;83386.20;;;12.13;20.97
70437;BME280;57877;39.750;-104.894;2023-05-07T09:59:31;83391.37;;;11.53;21.34
70437;BME280;57877;39.750;-104.894;2023-05-07T10:01:57;83397.34;;;11.71;21.68
70437;BME280;57877;39.750;-104.894;2023-05-07T10:04:20;83397.28;;;11.95;21.27
70437;BME280;57877;39.750;-104.894;2023-05-07T10:06:46;83402.38;;;12.07;20.99
70437;BME280;57877;39.750;-104.894;2023-05-07T10:09:11;83403.91;;;11.62;21.11
70437;BME280;57877;39.750;-104.894;2023-05-07T10:11:37;83408.97;;;11.64;21.36
70437;BME280;57877;39.750;-104.894;2023-05-07T10:14:03;83412.72;;;12.00;20.99
70437;BME280;57877;39.750;-104.894;2023-05-07T10:16:27;83411.67;;;11.68;21.24
70437;BME280;57877;39.750;-104.894;2023-05-07T10:18:52;83411.14;;;11.65;21.34
70437;BME280;57877;39.750;-104.894;2023-05-07T10:21:20;83411.20;;;11.30;21.40
70437;BME280;57877;39.750;-104.894;2023-05-07T10:23:51;83415.27;;;11.65;21.47
70437;BME280;57877;39.750;-104.894;2023-05-07T10:26:09;83418.79;;;11.11;22.51
70437;BME280;57877;39.750;-104.894;2023-05-07T10:28:37;83416.84;;;11.06;23.03
70437;BME280;57877;39.750;-104.894;2023-05-07T10:31:08;83414.47;;;10.62;23.31
70437;BME280;57877;39.750;-104.894;2023-05-07T10:33:27;83419.04;;;10.62;23.80
70437;BME280;57877;39.750;-104.894;2023-05-07T10:35:49;83424.39;;;10.47;23.64
70437;BME280;57877;39.750;-104.894;2023-05-07T10:38:14;83432.24;;;10.70;23.62
70437;BME280;57877;39.750;-104.894;2023-05-07T10:40:40;83428.95;;;10.69;23.42
70437;BME280;57877;39.750;-104.894;2023-05-07T10:43:05;83423.51;;;10.34;23.53
70437;BME280;57877;39.750;-104.894;2023-05-07T10:45:31;83419.57;;;10.87;23.29
70437;BME280;57877;39.750;-104.894;2023-05-07T10:50:21;83416.67;;;10.82;23.58
70437;BME280;57877;39.750;-104.894;2023-05-07T10:55:19;83411.70;;;11.11;23.56
70437;BME280;57877;39.750;-104.894;2023-05-07T10:57:39;83406.49;;;10.82;24.16
70437;BME280;57877;39.750;-104.894;2023-05-07T11:07:26;83410.85;;;10.48;25.05
70437;BME280;57877;39.750;-104.894;2023-05-07T11:12:10;83415.19;;;9.75;26.06
70437;BME280;57877;39.750;-104.894;2023-05-07T11:14:44;83425.89;;;9.66;25.67
70437;BME280;57877;39.750;-104.894;2023-05-07T11:17:03;83427.97;;;9.50;26.08
70437;BME280;57877;39.750;-104.894;2023-05-07T11:21:52;83438.08;;;9.82;26.06
70437;BME280;57877;39.750;-104.894;2023-05-07T11:24:17;83441.18;;;10.00;26.00
70437;BME280;57877;39.750;-104.894;2023-05-07T11:26:45;83441.43;;;9.34;26.21
70437;BME280;57877;39.750;-104.894;2023-05-07T11:29:12;83438.55;;;9.59;25.90
70437;BME280;57877;39.750;-104.894;2023-05-07T11:31:33;83438.50;;;9.90;25.78
70437;BME280;57877;39.750;-104.894;2023-05-07T11:34:00;83439.10;;;9.41;25.91
70437;BME280;57877;39.750;-104.894;2023-05-07T11:36:31;83441.07;;;9.57;25.85
70437;BME280;57877;39.750;-104.894;2023-05-07T11:38:52;83440.14;;;9.49;25.99
70437;BME280;57877;39.750;-104.894;2023-05-07T11:41:18;83439.87;;;9.51;25.91
70437;BME280;57877;39.750;-104.894;2023-05-07T11:46:11;83444.84;;;8.96;26.18
70437;BME280;57877;39.750;-104.894;2023-05-07T11:48:36;83442.37;;;9.68;25.86
70437;BME280;57877;39.750;-104.894;2023-05-07T11:51:03;83445.28;;;9.48;26.06
70437;BME280;57877;39.750;-104.894;2023-05-07T11:55:53;83457.06;;;9.15;26.30
70437;BME280;57877;39.750;-104.894;2023-05-07T11:58:23;83457.76;;;9.38;25.88
70437;BME280;57877;39.750;-104.894;2023-05-07T12:00:49;83459.68;;;9.44;25.92
70437;BME280;57877;39.750;-104.894;2023-05-07T12:03:10;83464.77;;;9.26;25.88
70437;BME280;57877;39.750;-104.894;2023-05-07T12:05:36;83472.26;;;9.55;25.77
70437;BME280;57877;39.750;-104.894;2023-05-07T12:08:02;83475.00;;;9.66;25.80
70437;BME280;57877;39.750;-104.894;2023-05-07T12:10:28;83477.72;;;9.89;25.54
70437;BME280;57877;39.750;-104.894;2023-05-07T12:12:54;83475.53;;;9.87;25.65
70437;BME280;57877;39.750;-104.894;2023-05-07T12:15:23;83477.49;;;9.65;25.29
70437;BME280;57877;39.750;-104.894;2023-05-07T12:17:44;83478.97;;;9.90;24.98
70437;BME280;57877;39.750;-104.894;2023-05-07T12:20:11;83475.05;;;10.08;24.86
70437;BME280;57877;39.750;-104.894;2023-05-07T12:22:36;83472.91;;;10.17;24.64
70437;BME280;57877;39.750;-104.894;2023-05-07T12:25:01;83476.11;;;10.28;24.45
70437;BME280;57877;39.750;-104.894;2023-05-07T12:27:26;83476.97;;;10.24;24.41
70437;BME280;57877;39.750;-104.894;2023-05-07T12:29:51;83476.64;;;10.19;24.41
70437;BME280;57877;39.750;-104.894;2023-05-07T12:32:17;83482.08;;;10.22;24.57
70437;BME280;57877;39.750;-104.894;2023-05-07T12:34:41;83486.22;;;10.47;24.25
70437;BME280;57877;39.750;-104.894;2023-05-07T12:37:07;83491.86;;;10.13;24.47
70437;BME280;57877;39.750;-104.894;2023-05-07T12:39:33;83498.75;;;10.11;24.61
70437;BME280;57877;39.750;-104.894;2023-05-07T12:42:00;83501.90;;;10.46;24.59
70437;BME280;57877;39.750;-104.894;2023-05-07T12:44:30;83507.07;;;10.37;24.58